createdAt,value
2017-06-23T00:02:06.890Z,18.26
2017-06-23T00:04:35.296Z,18.20
2017-06-23T00:07:03.722Z,18.22
2017-06-23T00:09:32.141Z,18.24
2017-06-23T00:12:00.571Z,18.24
2017-06-23T00:14:29.684Z,18.24
2017-06-23T00:16:58.112Z,18.20
2017-06-23T00:19:26.534Z,18.16
2017-06-23T00:21:55.522Z,18.10
2017-06-23T00:24:24.332Z,18.09
2017-06-23T00:26:52.739Z,18.06
2017-06-23T00:29:21.172Z,18.04
2017-06-23T00:31:49.984Z,17.98
2017-06-23T00:34:18.414Z,17.96
2017-06-23T00:36:46.828Z,17.89
2017-06-23T00:39:15.324Z,17.84
2017-06-23T00:41:43.739Z,17.81
2017-06-23T00:44:12.396Z,17.79
2017-06-23T00:46:40.807Z,17.79
2017-06-23T00:49:09.226Z,17.80
2017-06-23T00:51:37.672Z,17.77
2017-06-23T00:54:06.088Z,17.73
2017-06-23T00:56:34.506Z,17.74
2017-06-23T00:59:02.915Z,17.71
2017-06-23T01:01:31.352Z,17.71
2017-06-23T01:03:59.764Z,17.71
2017-06-23T01:06:28.299Z,17.78
2017-06-23T01:08:57.099Z,17.83
2017-06-23T01:11:25.902Z,17.90
2017-06-23T01:13:54.335Z,17.98
2017-06-23T01:16:22.739Z,17.97
2017-06-23T01:18:51.569Z,17.99
2017-06-23T01:21:19.998Z,18.02
2017-06-23T01:23:48.424Z,18.06
2017-06-23T01:26:16.830Z,18.08
2017-06-23T01:28:45.256Z,17.55
2017-06-23T01:31:13.669Z,17.50
2017-06-23T01:33:42.232Z,17.55
2017-06-23T01:36:10.637Z,17.56
2017-06-23T01:38:39.048Z,17.60
2017-06-23T01:41:07.470Z,17.63
2017-06-23T01:43:36.268Z,17.63
2017-06-23T01:46:04.696Z,17.69
2017-06-23T01:48:33.116Z,17.77
2017-06-23T01:51:01.953Z,17.83
2017-06-23T01:53:30.368Z,17.82
2017-06-23T01:55:59.183Z,17.76
2017-06-23T01:58:27.668Z,17.72
2017-06-23T02:00:56.080Z,17.74
2017-06-23T02:03:24.496Z,17.68
2017-06-23T02:05:53.008Z,17.60
2017-06-23T02:08:21.427Z,17.44
2017-06-23T02:10:49.840Z,17.38
2017-06-23T02:13:18.280Z,17.30
2017-06-23T02:15:46.683Z,17.24
2017-06-23T02:18:15.117Z,17.19
2017-06-23T02:20:43.615Z,17.17
2017-06-23T02:23:12.306Z,17.21
2017-06-23T02:25:40.717Z,17.20
2017-06-23T02:28:09.122Z,17.36
2017-06-23T02:30:37.953Z,17.53
2017-06-23T02:33:06.372Z,17.56
2017-06-23T02:35:34.798Z,17.62
2017-06-23T02:38:03.211Z,17.61
2017-06-23T02:40:31.644Z,17.59
2017-06-23T02:43:00.448Z,17.62
2017-06-23T02:45:29.141Z,17.68
2017-06-23T02:47:57.552Z,17.66
2017-06-23T02:50:25.967Z,17.67
2017-06-23T02:52:54.393Z,17.63
2017-06-23T02:55:22.816Z,17.69
2017-06-23T02:57:51.337Z,17.73
2017-06-23T03:00:19.820Z,17.69
2017-06-23T03:02:48.410Z,17.69
2017-06-23T03:05:16.880Z,17.68
2017-06-23T03:07:45.767Z,17.69
2017-06-23T03:10:14.584Z,17.71
2017-06-23T03:12:43.004Z,17.77
2017-06-23T03:15:11.424Z,17.80
2017-06-23T03:17:40.219Z,17.74
2017-06-23T03:20:08.649Z,17.68
2017-06-23T03:22:37.054Z,17.69
2017-06-23T03:25:05.660Z,17.73
2017-06-23T03:27:34.066Z,17.73
2017-06-23T03:30:02.491Z,17.78
2017-06-23T03:32:30.936Z,17.87
2017-06-23T03:34:59.352Z,17.95
2017-06-23T03:37:27.791Z,18.06
2017-06-23T03:39:56.201Z,18.10
2017-06-23T03:42:25.446Z,18.14
2017-06-23T03:44:53.918Z,18.19
2017-06-23T03:47:22.758Z,18.22
2017-06-23T03:49:51.184Z,18.21
2017-06-23T03:52:19.982Z,18.27
2017-06-23T03:54:48.812Z,18.42
2017-06-23T03:57:17.233Z,18.46
2017-06-23T03:59:45.930Z,18.54
2017-06-23T04:02:14.736Z,18.70
2017-06-23T04:04:43.151Z,18.92
2017-06-23T04:07:11.579Z,19.25
2017-06-23T04:09:40.392Z,19.53
2017-06-23T04:12:08.819Z,19.60
2017-06-23T04:14:37.224Z,19.61
2017-06-23T04:17:06.059Z,19.51
2017-06-23T04:19:34.469Z,19.38
2017-06-23T04:22:02.979Z,19.25
2017-06-23T04:24:31.792Z,19.29
2017-06-23T04:27:00.370Z,19.44
2017-06-23T04:29:29.254Z,19.63
2017-06-23T04:31:58.146Z,19.61
2017-06-23T04:34:26.967Z,19.40
2017-06-23T04:36:55.421Z,19.19
2017-06-23T04:39:24.250Z,19.00
2017-06-23T04:41:52.651Z,18.91
2017-06-23T04:44:21.085Z,18.73
2017-06-23T04:46:49.836Z,18.62
2017-06-23T04:49:18.274Z,18.64
2017-06-23T04:54:45.634Z,18.63
2017-06-23T04:57:14.024Z,18.56
2017-06-23T04:59:42.422Z,18.57
2017-06-23T05:02:10.828Z,18.54
2017-06-23T05:04:39.228Z,18.47
2017-06-23T05:07:07.633Z,18.53
2017-06-23T05:09:36.043Z,18.53
2017-06-23T05:12:04.457Z,18.51
2017-06-23T05:14:32.848Z,18.54
2017-06-23T05:17:01.758Z,18.63
2017-06-23T05:19:30.633Z,18.69
2017-06-23T05:21:59.024Z,18.68
2017-06-23T05:24:27.829Z,18.64
2017-06-23T05:26:56.501Z,18.64
2017-06-23T05:29:25.297Z,18.69
2017-06-23T05:31:54.179Z,18.65
2017-06-23T05:34:22.985Z,18.66
2017-06-23T05:36:51.451Z,18.65
2017-06-23T05:39:20.432Z,18.59
2017-06-23T05:41:48.835Z,18.59
2017-06-23T05:44:18.038Z,18.60
2017-06-23T05:46:46.441Z,18.53
2017-06-23T05:49:14.841Z,18.54
2017-06-23T05:51:43.244Z,18.52
2017-06-23T05:54:12.056Z,18.53
2017-06-23T05:56:41.501Z,18.55
2017-06-23T05:59:09.896Z,18.48
2017-06-23T06:01:38.311Z,18.54
2017-06-23T06:04:07.105Z,18.57
2017-06-23T06:06:36.135Z,18.59
2017-06-23T06:09:04.575Z,18.59
2017-06-23T06:11:33.559Z,18.64
2017-06-23T06:14:02.481Z,18.69
2017-06-23T06:16:30.882Z,18.81
2017-06-23T06:18:59.289Z,18.95
2017-06-23T06:21:27.887Z,19.05
2017-06-23T06:23:56.306Z,19.13
2017-06-23T06:26:24.709Z,19.17
2017-06-23T06:28:53.259Z,19.20
2017-06-23T06:31:22.062Z,19.22
2017-06-23T06:33:50.449Z,19.19
2017-06-23T06:36:18.947Z,19.17
2017-06-23T06:38:47.354Z,19.17
2017-06-23T06:41:15.770Z,19.17
2017-06-23T06:43:44.555Z,19.17
2017-06-23T06:46:13.835Z,19.24
2017-06-23T06:48:42.277Z,19.28
2017-06-23T06:51:11.250Z,19.31
2017-06-23T06:53:39.930Z,19.30
2017-06-23T06:56:08.896Z,19.32
2017-06-23T06:58:37.948Z,19.27
2017-06-23T07:01:06.347Z,19.25
2017-06-23T07:03:34.866Z,19.30
2017-06-23T07:06:03.845Z,19.38
2017-06-23T07:08:33.150Z,19.47
2017-06-23T07:11:01.864Z,19.56
2017-06-23T07:13:30.437Z,19.57
2017-06-23T07:15:59.544Z,19.58
2017-06-23T07:18:28.343Z,19.57
2017-06-23T07:20:57.018Z,19.59
2017-06-23T07:23:25.812Z,19.70
2017-06-23T07:25:54.894Z,19.63
2017-06-23T07:28:23.681Z,19.52
2017-06-23T07:30:52.901Z,19.67
2017-06-23T07:33:22.124Z,19.71
2017-06-23T07:35:50.512Z,19.70
2017-06-23T07:38:19.269Z,19.87
2017-06-23T07:40:47.743Z,20.02
2017-06-23T07:43:16.553Z,20.03
2017-06-23T07:45:44.957Z,19.96
2017-06-23T07:48:13.360Z,19.95
2017-06-23T07:50:41.752Z,20.42
2017-06-23T07:53:11.103Z,21.40
2017-06-23T07:55:39.507Z,21.95
2017-06-23T07:58:08.002Z,21.89
2017-06-23T08:00:36.418Z,21.60
2017-06-23T08:03:05.204Z,21.35
2017-06-23T08:05:34.882Z,21.37
2017-06-23T08:08:03.327Z,21.82
2017-06-23T08:10:31.974Z,22.71
2017-06-23T08:13:00.760Z,24.03
2017-06-23T08:15:29.866Z,24.86
2017-06-23T08:17:58.682Z,27.67
2017-06-23T08:20:27.207Z,28.66
2017-06-23T08:22:55.621Z,29.05
2017-06-23T08:25:24.022Z,28.06
2017-06-23T08:27:52.618Z,28.35
2017-06-23T08:30:21.009Z,29.11
2017-06-23T08:32:50.457Z,29.45
2017-06-23T08:35:19.267Z,29.64
2017-06-23T08:37:48.786Z,31.26
2017-06-23T08:40:17.533Z,32.35
2017-06-23T08:42:46.613Z,31.00
2017-06-23T08:45:15.922Z,29.47
2017-06-23T08:47:44.339Z,27.63
2017-06-23T08:50:12.724Z,26.97
2017-06-23T08:52:41.139Z,26.56
2017-06-23T08:55:09.519Z,25.87
2017-06-23T08:57:38.349Z,25.65
2017-06-23T09:00:06.735Z,25.64
2017-06-23T09:02:35.526Z,26.02
2017-06-23T09:05:04.625Z,25.88
2017-06-23T09:07:33.422Z,25.91
2017-06-23T09:10:01.821Z,25.70
2017-06-23T09:12:30.218Z,25.26
2017-06-23T09:14:58.966Z,25.41
2017-06-23T09:17:27.744Z,25.34
2017-06-23T09:19:56.541Z,25.36
2017-06-23T09:22:25.325Z,25.63
2017-06-23T09:24:55.229Z,26.27
2017-06-23T09:27:24.341Z,26.80
2017-06-23T09:29:53.126Z,27.29
2017-06-23T09:32:22.230Z,27.94
2017-06-23T09:34:51.042Z,28.18
2017-06-23T09:37:19.450Z,27.93
2017-06-23T09:39:48.081Z,27.60
2017-06-23T09:42:16.886Z,26.97
2017-06-23T09:44:45.430Z,26.81
2017-06-23T09:47:14.642Z,27.28
2017-06-23T09:49:43.041Z,27.37
2017-06-23T09:52:11.431Z,26.56
2017-06-23T09:54:39.828Z,26.99
2017-06-23T09:57:09.401Z,28.32
2017-06-23T09:59:37.872Z,28.92
2017-06-23T10:02:06.778Z,28.14
2017-06-23T10:04:36.574Z,27.60
2017-06-23T10:07:04.970Z,27.18
2017-06-23T10:09:33.739Z,26.55
2017-06-23T10:12:02.139Z,26.42
2017-06-23T10:14:30.920Z,27.26
2017-06-23T10:16:59.721Z,28.93
2017-06-23T10:19:28.496Z,31.09
2017-06-23T10:21:57.700Z,30.50
2017-06-23T10:24:27.175Z,29.93
2017-06-23T10:26:55.569Z,29.47
2017-06-23T10:29:23.974Z,29.07
2017-06-23T10:31:52.369Z,28.51
2017-06-23T10:34:20.773Z,27.76
2017-06-23T10:36:49.157Z,27.09
2017-06-23T10:39:17.570Z,26.74
2017-06-23T10:41:45.963Z,26.80
2017-06-23T10:44:15.273Z,27.05
2017-06-23T10:46:44.051Z,26.97
2017-06-23T10:49:12.838Z,27.12
2017-06-23T10:51:41.632Z,26.75
2017-06-23T10:54:10.526Z,26.19
2017-06-23T10:56:39.330Z,26.11
2017-06-23T10:59:08.011Z,25.68
2017-06-23T11:01:37.190Z,25.44
2017-06-23T11:04:06.596Z,25.57
2017-06-23T11:06:35.394Z,25.80
2017-06-23T11:09:04.215Z,25.65
2017-06-23T11:11:32.601Z,25.58
2017-06-23T11:14:00.996Z,26.09
2017-06-23T11:16:29.733Z,26.48
2017-06-23T11:18:58.143Z,26.37
2017-06-23T11:21:26.536Z,26.52
2017-06-23T11:23:54.945Z,26.61
2017-06-23T11:26:24.183Z,26.82
2017-06-23T11:28:52.596Z,26.46
2017-06-23T11:31:21.010Z,26.16
2017-06-23T11:33:49.449Z,25.93
2017-06-23T11:36:18.157Z,25.95
2017-06-23T11:38:46.559Z,26.26
2017-06-23T11:41:14.945Z,26.56
2017-06-23T11:43:43.357Z,26.70
2017-06-23T11:46:11.750Z,26.47
2017-06-23T11:48:40.168Z,26.14
2017-06-23T11:51:08.565Z,25.96
2017-06-23T11:53:37.165Z,26.00
2017-06-23T11:56:05.940Z,26.05
2017-06-23T11:58:34.338Z,26.05
2017-06-23T12:01:03.520Z,25.98
2017-06-23T12:03:31.908Z,25.73
2017-06-23T12:06:00.709Z,26.05
2017-06-23T12:08:29.494Z,26.32
2017-06-23T12:10:58.473Z,26.52
2017-06-23T12:13:27.261Z,26.03
2017-06-23T12:15:55.968Z,25.92
2017-06-23T12:18:24.389Z,26.27
2017-06-23T12:20:52.781Z,26.42
2017-06-23T12:23:22.067Z,26.13
2017-06-23T12:25:51.489Z,26.08
2017-06-23T12:28:19.872Z,25.95
2017-06-23T12:30:48.322Z,26.05
2017-06-23T12:33:16.705Z,26.03
2017-06-23T12:35:45.547Z,25.91
2017-06-23T12:38:14.329Z,26.03
2017-06-23T12:40:42.760Z,25.89
2017-06-23T12:43:11.160Z,26.04
2017-06-23T12:45:39.541Z,26.03
2017-06-23T12:48:07.944Z,25.98
2017-06-23T12:50:36.334Z,25.94
2017-06-23T12:53:04.962Z,25.90
2017-06-23T12:55:33.361Z,25.96
2017-06-23T12:58:01.754Z,26.12
2017-06-23T13:00:30.155Z,26.02
2017-06-23T13:02:58.554Z,26.30
2017-06-23T13:05:27.033Z,26.34
2017-06-23T13:07:55.817Z,26.41
2017-06-23T13:10:24.807Z,26.61
2017-06-23T13:12:53.596Z,26.46
2017-06-23T13:15:22.602Z,26.34
2017-06-23T13:17:51.423Z,26.28
2017-06-23T13:20:20.112Z,26.02
2017-06-23T13:22:48.503Z,25.64
2017-06-23T13:25:16.884Z,25.26
2017-06-23T13:27:46.800Z,25.06
2017-06-23T13:30:15.199Z,24.97
2017-06-23T13:32:43.625Z,25.14
2017-06-23T13:35:12.011Z,25.21
2017-06-23T13:37:40.917Z,25.38
2017-06-23T13:40:09.307Z,25.37
2017-06-23T13:42:37.838Z,25.27
2017-06-23T13:45:07.556Z,25.20
2017-06-23T13:47:36.342Z,25.10
2017-06-23T13:50:04.745Z,25.30
2017-06-23T13:52:33.202Z,25.50
2017-06-23T13:55:02.009Z,25.87
2017-06-23T13:57:30.388Z,26.30
2017-06-23T13:59:59.656Z,26.44
2017-06-23T14:02:28.031Z,26.23
2017-06-23T14:04:56.412Z,25.75
2017-06-23T14:07:24.824Z,25.32
2017-06-23T14:09:53.212Z,24.91
2017-06-23T14:12:23.035Z,24.54
2017-06-23T14:14:51.425Z,24.38
2017-06-23T14:17:19.833Z,24.36
2017-06-23T14:19:48.219Z,24.40
2017-06-23T14:22:17.020Z,24.47
2017-06-23T14:24:45.521Z,24.35
2017-06-23T14:27:14.300Z,24.14
2017-06-23T14:29:42.700Z,24.19
2017-06-23T14:32:11.080Z,24.18
2017-06-23T14:34:39.481Z,24.03
2017-06-23T14:37:07.878Z,23.96
2017-06-23T14:39:36.410Z,24.24
2017-06-23T14:42:04.806Z,24.55
2017-06-23T14:44:33.184Z,25.01
2017-06-23T14:47:01.581Z,25.18
2017-06-23T14:49:30.182Z,25.46
2017-06-23T14:51:58.575Z,25.69
2017-06-23T14:54:26.966Z,25.59
2017-06-23T14:56:55.571Z,25.50
2017-06-23T14:59:24.353Z,25.45
2017-06-23T15:01:52.785Z,25.53
2017-06-23T15:04:21.181Z,25.43
2017-06-23T15:06:49.918Z,25.35
2017-06-23T15:09:18.712Z,25.42
2017-06-23T15:11:47.500Z,25.69
2017-06-23T15:14:15.898Z,25.87
2017-06-23T15:16:44.294Z,25.98
2017-06-23T15:19:12.942Z,25.85
2017-06-23T15:21:41.730Z,25.74
2017-06-23T15:24:10.519Z,25.94
2017-06-23T15:26:39.332Z,26.03
2017-06-23T15:29:07.712Z,25.82
2017-06-23T15:31:36.117Z,25.79
2017-06-23T15:34:04.500Z,25.78
2017-06-23T15:36:34.313Z,25.80
2017-06-23T15:39:02.719Z,25.88
2017-06-23T15:41:31.222Z,25.94
2017-06-23T15:44:00.026Z,26.02
2017-06-23T15:46:28.417Z,26.31
2017-06-23T15:48:57.184Z,26.40
2017-06-23T15:51:26.065Z,26.25
2017-06-23T15:53:55.053Z,26.18
2017-06-23T15:56:23.442Z,26.11
2017-06-23T15:58:53.642Z,26.03
2017-06-23T16:01:22.036Z,25.95
2017-06-23T16:03:50.432Z,25.90
2017-06-23T16:06:20.450Z,25.86
2017-06-23T16:08:49.241Z,25.86
2017-06-23T16:11:18.036Z,25.94
2017-06-23T16:13:46.492Z,25.95
2017-06-23T16:16:15.077Z,25.88
2017-06-23T16:18:43.456Z,25.78
2017-06-23T16:21:11.858Z,25.77
2017-06-23T16:23:40.653Z,25.89
2017-06-23T16:26:09.546Z,25.85
2017-06-23T16:28:38.225Z,25.89
2017-06-23T16:31:07.014Z,25.70
2017-06-23T16:33:36.585Z,25.70
2017-06-23T16:36:05.622Z,25.75
2017-06-23T16:38:34.841Z,25.71
2017-06-23T16:41:03.442Z,25.39
2017-06-23T16:43:33.205Z,25.31
2017-06-23T16:46:03.363Z,25.34
2017-06-23T16:48:32.561Z,25.30
2017-06-23T16:51:01.417Z,25.22
2017-06-23T16:53:29.796Z,25.08
2017-06-23T16:55:58.601Z,25.07
2017-06-23T16:58:27.890Z,24.96
2017-06-23T17:00:56.321Z,24.96
2017-06-23T17:03:24.785Z,24.97
2017-06-23T17:05:53.184Z,24.90
2017-06-23T17:08:21.578Z,24.92
2017-06-23T17:10:50.438Z,24.90
2017-06-23T17:13:18.817Z,24.89
2017-06-23T17:15:47.209Z,24.92
2017-06-23T17:18:15.617Z,24.91
2017-06-23T17:20:45.970Z,24.82
2017-06-23T17:23:14.771Z,24.69
2017-06-23T17:25:43.175Z,24.59
2017-06-23T17:28:11.653Z,24.53
2017-06-23T17:30:40.046Z,24.54
2017-06-23T17:33:08.692Z,24.55
2017-06-23T17:35:37.201Z,24.59
2017-06-23T17:38:05.611Z,24.54
2017-06-23T17:40:34.022Z,24.49
2017-06-23T17:43:02.814Z,24.47
2017-06-23T17:45:31.636Z,24.49
2017-06-23T17:48:00.998Z,24.45
2017-06-23T17:50:30.243Z,24.43
2017-06-23T17:52:59.561Z,24.42
2017-06-23T17:55:28.574Z,24.40
2017-06-23T17:57:56.979Z,24.40
2017-06-23T18:00:25.769Z,24.37
2017-06-23T18:02:54.560Z,24.33
2017-06-23T18:05:23.344Z,24.27
2017-06-23T18:07:52.352Z,24.27
2017-06-23T18:10:21.145Z,24.31
2017-06-23T18:12:49.934Z,24.23
2017-06-23T18:15:18.342Z,24.27
2017-06-23T18:17:46.993Z,24.25
2017-06-23T18:20:15.784Z,24.21
2017-06-23T18:22:45.778Z,24.18
2017-06-23T18:25:14.395Z,24.17
2017-06-23T18:27:42.802Z,24.04
2017-06-23T18:30:11.556Z,24.06
2017-06-23T18:32:40.387Z,23.99
2017-06-23T18:35:08.776Z,23.93
2017-06-23T18:37:37.406Z,23.90
2017-06-23T18:40:06.202Z,23.89
2017-06-23T18:42:34.980Z,23.83
2017-06-23T18:45:03.783Z,23.75
2017-06-23T18:47:32.556Z,23.67
2017-06-23T18:50:01.349Z,23.63
2017-06-23T18:52:29.728Z,23.51
2017-06-23T18:54:58.525Z,23.46
2017-06-23T18:57:27.318Z,23.44
2017-06-23T18:59:56.330Z,23.40
2017-06-23T19:02:24.758Z,23.38
2017-06-23T19:04:53.197Z,23.32
2017-06-23T19:07:21.644Z,23.28
2017-06-23T19:09:50.630Z,23.21
2017-06-23T19:12:19.328Z,23.16
2017-06-23T19:14:48.104Z,23.10
2017-06-23T19:17:16.637Z,23.06
2017-06-23T19:19:45.074Z,23.02
2017-06-23T19:22:13.856Z,22.99
2017-06-23T19:24:42.267Z,22.91
2017-06-23T19:27:12.084Z,22.92
2017-06-23T19:29:40.961Z,22.92
2017-06-23T19:32:09.837Z,22.91
2017-06-23T19:34:38.871Z,22.87
2017-06-23T19:37:07.286Z,22.84
2017-06-23T19:39:35.683Z,22.85
2017-06-23T19:42:04.112Z,22.83
2017-06-23T19:44:32.514Z,22.81
2017-06-23T19:47:01.147Z,22.77
2017-06-23T19:49:29.931Z,22.74
2017-06-23T19:51:58.712Z,22.69
2017-06-23T19:54:27.117Z,22.67
2017-06-23T19:56:56.312Z,22.64
2017-06-23T19:59:25.135Z,22.62
2017-06-23T20:01:54.093Z,22.63
2017-06-23T20:04:22.509Z,22.62
2017-06-23T20:06:51.773Z,22.54
2017-06-23T20:09:20.648Z,22.50
2017-06-23T20:11:49.041Z,22.48
2017-06-23T20:14:18.022Z,22.46
2017-06-23T20:16:47.146Z,22.43
2017-06-23T20:19:15.529Z,22.39
2017-06-23T20:21:43.944Z,22.41
2017-06-23T20:24:12.349Z,22.41
2017-06-23T20:26:40.758Z,22.41
2017-06-23T20:29:09.145Z,22.42
2017-06-23T20:31:37.555Z,22.38
2017-06-23T20:34:05.940Z,22.35
2017-06-23T20:36:34.349Z,22.37
2017-06-23T20:39:02.736Z,22.34
2017-06-23T20:41:31.328Z,22.31
2017-06-23T20:44:00.118Z,22.25
2017-06-23T20:46:29.478Z,22.22
2017-06-23T20:48:57.888Z,22.20
2017-06-23T20:51:27.214Z,22.16
2017-06-23T20:53:55.624Z,22.15
2017-06-23T20:56:24.030Z,22.13
2017-06-23T20:58:52.875Z,22.12
2017-06-23T21:01:21.282Z,22.10
2017-06-23T21:03:49.677Z,22.09
2017-06-23T21:06:18.724Z,22.09
2017-06-23T21:08:47.514Z,22.10
2017-06-23T21:11:16.318Z,22.08
2017-06-23T21:13:44.726Z,22.04
2017-06-23T21:16:13.155Z,22.03
2017-06-23T21:18:41.983Z,22.01
2017-06-23T21:21:10.380Z,22.01
2017-06-23T21:23:38.765Z,21.98
2017-06-23T21:26:07.580Z,22.00
2017-06-23T21:28:35.978Z,22.03
2017-06-23T21:31:04.764Z,22.06
2017-06-23T21:33:33.552Z,22.05
2017-06-23T21:36:02.355Z,22.05
2017-06-23T21:38:30.778Z,22.08
2017-06-23T21:41:16.669Z,22.10
2017-06-23T21:43:45.776Z,22.09
2017-06-23T21:46:14.184Z,22.09
2017-06-23T21:48:43.274Z,22.11
2017-06-23T21:51:11.672Z,22.09
2017-06-23T21:53:40.073Z,22.07
2017-06-23T21:56:09.494Z,22.07
2017-06-23T21:58:38.334Z,22.07
2017-06-23T22:01:07.136Z,22.07
2017-06-23T22:03:35.934Z,22.03
2017-06-23T22:06:04.329Z,22.03
2017-06-23T22:08:32.727Z,22.03
2017-06-23T22:11:01.363Z,22.03
2017-06-23T22:13:30.140Z,22.01
2017-06-23T22:15:58.576Z,22.00
2017-06-23T22:18:26.989Z,22.00
2017-06-23T22:20:55.368Z,22.00
2017-06-23T22:23:23.778Z,22.00
2017-06-23T22:25:53.451Z,22.02
2017-06-23T22:28:21.857Z,21.98
2017-06-23T22:30:50.663Z,22.00
2017-06-23T22:33:19.571Z,22.00
2017-06-23T22:35:48.870Z,22.02
2017-06-23T22:38:18.210Z,22.03
2017-06-23T22:40:48.049Z,21.98
2017-06-23T22:43:16.458Z,21.94
2017-06-23T22:45:45.136Z,21.89
2017-06-23T22:48:14.628Z,21.87
2017-06-23T22:50:43.040Z,21.84
2017-06-23T22:53:11.442Z,21.77
2017-06-23T22:55:40.125Z,21.73
2017-06-23T22:58:08.557Z,21.72
2017-06-23T23:00:36.955Z,21.70
2017-06-23T23:03:05.368Z,21.68
2017-06-23T23:05:33.801Z,21.66
2017-06-23T23:08:02.596Z,21.61
2017-06-23T23:10:31.525Z,21.64
2017-06-23T23:13:00.181Z,21.66
2017-06-23T23:15:28.957Z,21.64
2017-06-23T23:17:57.792Z,21.57
2017-06-23T23:20:26.228Z,21.49
2017-06-23T23:22:54.628Z,21.37
2017-06-23T23:25:23.020Z,21.39
2017-06-23T23:27:51.415Z,21.42
2017-06-23T23:30:19.796Z,21.36
2017-06-23T23:32:48.181Z,21.30
2017-06-23T23:35:16.577Z,21.28
2017-06-23T23:37:44.965Z,21.23
2017-06-23T23:40:14.128Z,21.24
2017-06-23T23:42:42.544Z,21.21
2017-06-23T23:45:11.148Z,21.16
2017-06-23T23:47:39.548Z,21.15
2017-06-23T23:50:08.321Z,21.13
2017-06-23T23:52:37.108Z,21.07
2017-06-23T23:55:05.943Z,21.00
2017-06-23T23:57:34.340Z,20.97
